createdAt,value
2019-05-18T00:00:14.014Z,99.99
2019-05-18T00:01:13.915Z,99.99
2019-05-18T00:02:13.878Z,99.99
2019-05-18T00:03:13.755Z,99.99
2019-05-18T00:04:13.689Z,99.99
2019-05-18T00:05:13.594Z,99.99
2019-05-18T00:06:13.515Z,99.99
2019-05-18T00:07:13.426Z,99.99
2019-05-18T00:08:13.364Z,99.99
2019-05-18T00:09:13.271Z,99.99
2019-05-18T00:10:13.191Z,99.99
2019-05-18T00:11:13.103Z,99.99
2019-05-18T00:12:13.027Z,99.99
2019-05-18T00:13:12.954Z,99.99
2019-05-18T00:14:12.865Z,99.99
2019-05-18T00:15:12.791Z,99.99
2019-05-18T00:16:12.704Z,99.99
2019-05-18T00:17:24.510Z,99.99
2019-05-18T00:18:12.542Z,99.99
2019-05-18T00:19:12.471Z,99.99
2019-05-18T00:20:12.378Z,99.99
2019-05-18T00:21:12.305Z,99.99
2019-05-18T00:22:12.216Z,99.99
2019-05-18T00:23:12.142Z,99.99
2019-05-18T00:24:12.056Z,99.99
2019-05-18T00:25:11.981Z,99.99
2019-05-18T00:26:11.903Z,99.99
2019-05-18T00:27:11.821Z,99.99
2019-05-18T00:28:11.743Z,99.99
2019-05-18T00:29:11.654Z,99.99
2019-05-18T00:30:11.592Z,99.99
2019-05-18T00:31:11.494Z,99.99
2019-05-18T00:32:11.422Z,99.99
2019-05-18T00:33:11.343Z,99.99
2019-05-18T00:34:11.268Z,99.99
2019-05-18T00:35:11.172Z,99.99
2019-05-18T00:36:11.093Z,99.99
2019-05-18T00:37:11.006Z,99.99
2019-05-18T00:38:10.946Z,99.99
2019-05-18T00:39:10.843Z,99.99
2019-05-18T00:40:10.769Z,99.99
2019-05-18T00:41:10.681Z,99.99
2019-05-18T00:42:10.608Z,99.99
2019-05-18T00:43:10.519Z,99.99
2019-05-18T00:44:10.446Z,99.99
2019-05-18T00:45:10.358Z,99.99
2019-05-18T00:46:10.281Z,99.99
2019-05-18T00:47:10.205Z,99.99
2019-05-18T00:48:10.120Z,99.99
2019-05-18T00:49:10.045Z,99.99
2019-05-18T00:50:09.958Z,99.99
2019-05-18T00:51:09.882Z,99.99
2019-05-18T00:52:09.795Z,99.99
2019-05-18T00:53:09.721Z,99.99
2019-05-18T00:54:09.679Z,99.99
2019-05-18T00:55:09.557Z,99.99
2019-05-18T00:56:09.471Z,99.99
2019-05-18T00:57:09.397Z,99.99
2019-05-18T00:58:09.307Z,99.99
2019-05-18T00:59:09.232Z,99.99
2019-05-18T01:00:09.147Z,99.99
2019-05-18T01:01:09.169Z,99.99
2019-05-18T01:02:08.982Z,99.99
2019-05-18T01:03:08.909Z,99.99
2019-05-18T01:04:08.821Z,99.99
2019-05-18T01:05:08.749Z,99.99
2019-05-18T01:06:08.658Z,99.99
2019-05-18T01:07:08.583Z,99.99
2019-05-18T01:08:08.497Z,99.99
2019-05-18T01:09:08.423Z,99.99
2019-05-18T01:10:08.333Z,99.99
2019-05-18T01:11:08.259Z,99.99
2019-05-18T01:12:08.175Z,99.99
2019-05-18T01:13:08.097Z,99.99
2019-05-18T01:14:08.024Z,99.99
2019-05-18T01:15:07.934Z,99.99
2019-05-18T01:16:07.851Z,99.99
2019-05-18T01:17:07.773Z,99.99
2019-05-18T01:18:07.685Z,99.99
2019-05-18T01:19:07.609Z,99.99
2019-05-18T01:20:07.524Z,99.99
2019-05-18T01:21:07.448Z,99.99
2019-05-18T01:22:07.360Z,99.99
2019-05-18T01:23:07.287Z,99.99
2019-05-18T01:24:07.215Z,99.99
2019-05-18T01:25:07.125Z,99.99
2019-05-18T01:26:07.054Z,99.99
2019-05-18T01:27:06.960Z,99.99
2019-05-18T01:28:06.873Z,99.99
2019-05-18T01:29:06.798Z,99.99
2019-05-18T01:30:06.727Z,99.99
2019-05-18T01:31:06.649Z,99.99
2019-05-18T01:32:06.554Z,99.99
2019-05-18T01:33:06.499Z,99.99
2019-05-18T01:34:06.387Z,99.99
2019-05-18T01:35:06.311Z,99.99
2019-05-18T01:36:06.228Z,99.99
2019-05-18T01:37:06.150Z,99.99
2019-05-18T01:38:06.063Z,99.99
2019-05-18T01:39:05.988Z,99.99
2019-05-18T01:40:05.912Z,99.99
2019-05-18T01:41:05.825Z,99.99
2019-05-18T01:42:05.750Z,99.99
2019-05-18T01:43:05.662Z,99.99
2019-05-18T01:44:05.575Z,99.99
2019-05-18T01:45:16.234Z,99.99
2019-05-18T01:46:05.416Z,99.99
2019-05-18T01:47:05.338Z,99.99
2019-05-18T01:48:13.157Z,99.99
2019-05-18T01:49:05.178Z,99.99
2019-05-18T01:50:05.092Z,99.99
2019-05-18T01:51:05.013Z,99.99
2019-05-18T01:52:04.925Z,99.99
2019-05-18T01:53:04.852Z,99.99
2019-05-18T01:54:04.764Z,99.99
2019-05-18T01:55:04.701Z,99.99
2019-05-18T01:56:04.601Z,99.99
2019-05-18T01:57:04.528Z,99.99
2019-05-18T01:58:04.441Z,99.99
2019-05-18T01:59:04.366Z,99.99
2019-05-18T02:00:04.314Z,99.99
2019-05-18T02:01:04.204Z,99.99
2019-05-18T02:02:04.120Z,99.99
2019-05-18T02:03:04.039Z,99.99
2019-05-18T02:04:03.978Z,99.99
2019-05-18T02:05:03.878Z,99.99
2019-05-18T02:06:03.789Z,99.99
2019-05-18T02:07:03.773Z,99.99
2019-05-18T02:08:03.629Z,99.99
2019-05-18T02:09:03.554Z,99.99
2019-05-18T02:10:03.466Z,99.99
2019-05-18T02:11:03.390Z,99.99
2019-05-18T02:12:03.306Z,99.99
2019-05-18T02:13:03.254Z,99.99
2019-05-18T02:14:03.153Z,99.66
2019-05-18T02:15:03.077Z,99.95
2019-05-18T02:16:03.036Z,99.66
2019-05-18T02:17:02.904Z,99.66
2019-05-18T02:18:02.828Z,99.85
2019-05-18T02:19:02.741Z,98.90
2019-05-18T02:20:02.659Z,98.99
2019-05-18T02:21:02.579Z,99.27
2019-05-18T02:22:02.491Z,98.90
2019-05-18T02:23:02.417Z,98.99
2019-05-18T02:24:02.347Z,99.08
2019-05-18T02:25:02.255Z,99.46
2019-05-18T02:26:02.168Z,98.70
2019-05-18T02:27:02.094Z,99.46
2019-05-18T02:28:02.016Z,99.18
2019-05-18T02:29:01.934Z,98.99
2019-05-18T02:30:01.959Z,97.94
2019-05-18T02:31:01.758Z,98.03
2019-05-18T02:32:01.681Z,98.03
2019-05-18T02:33:01.595Z,98.42
2019-05-18T02:34:01.519Z,98.42
2019-05-18T02:35:01.432Z,98.32
2019-05-18T02:36:01.357Z,97.56
2019-05-18T02:37:01.300Z,97.46
2019-05-18T02:38:01.195Z,96.80
2019-05-18T02:39:01.113Z,96.41
2019-05-18T02:40:01.031Z,96.80
2019-05-18T02:41:00.951Z,96.51
2019-05-18T02:42:00.884Z,96.22
2019-05-18T02:43:00.783Z,96.70
2019-05-18T02:44:00.710Z,97.37
2019-05-18T02:45:00.620Z,96.70
2019-05-18T02:46:00.545Z,96.80
2019-05-18T02:47:00.478Z,96.51
2019-05-18T02:48:00.383Z,95.84
2019-05-18T02:49:00.301Z,96.13
2019-05-18T02:50:00.225Z,96.41
2019-05-18T02:51:00.134Z,95.94
2019-05-18T02:52:00.059Z,96.41
2019-05-18T02:52:59.972Z,96.41
2019-05-18T02:53:59.910Z,96.41
2019-05-18T02:54:59.809Z,95.84
2019-05-18T02:55:59.722Z,96.22
2019-05-18T02:56:59.644Z,95.27
2019-05-18T02:57:59.571Z,95.27
2019-05-18T02:58:59.492Z,95.84
2019-05-18T02:59:59.396Z,95.46
2019-05-18T03:00:59.323Z,95.56
2019-05-18T03:01:59.233Z,95.84
2019-05-18T03:02:59.162Z,95.08
2019-05-18T03:03:59.075Z,95.27
2019-05-18T03:04:59.003Z,95.37
2019-05-18T03:05:58.911Z,95.56
2019-05-18T03:06:58.836Z,95.08
2019-05-18T03:07:58.747Z,95.37
2019-05-18T03:08:58.760Z,94.03
2019-05-18T03:09:58.584Z,93.93
2019-05-18T03:10:58.511Z,93.93
2019-05-18T03:11:58.423Z,93.93
2019-05-18T03:12:58.360Z,92.50
2019-05-18T03:13:58.261Z,93.46
2019-05-18T03:14:58.174Z,93.36
2019-05-18T03:15:58.099Z,93.84
2019-05-18T03:16:58.023Z,92.88
2019-05-18T03:17:57.938Z,92.60
2019-05-18T03:19:07.458Z,93.08
2019-05-18T03:19:57.774Z,92.03
2019-05-18T03:20:57.690Z,91.93
2019-05-18T03:22:00.888Z,91.93
2019-05-18T03:22:57.523Z,92.41
2019-05-18T03:23:57.452Z,92.12
2019-05-18T03:24:57.368Z,92.32
2019-05-18T03:25:57.290Z,92.41
2019-05-18T03:26:57.199Z,92.41
2019-05-18T03:27:57.135Z,92.41
2019-05-18T03:28:57.038Z,91.93
2019-05-18T03:29:56.962Z,91.93
2019-05-18T03:30:56.874Z,91.55
2019-05-18T03:31:56.807Z,91.83
2019-05-18T03:32:56.716Z,91.74
2019-05-18T03:33:56.626Z,92.12
2019-05-18T03:34:56.551Z,91.74
2019-05-18T03:35:56.563Z,91.83
2019-05-18T03:36:56.389Z,90.98
2019-05-18T03:37:56.299Z,91.07
2019-05-18T03:38:56.224Z,90.22
2019-05-18T03:39:56.137Z,89.74
2019-05-18T03:40:56.064Z,89.93
2019-05-18T03:41:55.980Z,89.45
2019-05-18T03:42:55.909Z,89.93
2019-05-18T03:43:55.813Z,90.03
2019-05-18T03:44:55.740Z,89.93
2019-05-18T03:45:55.650Z,89.74
2019-05-18T03:46:55.589Z,90.12
2019-05-18T03:47:55.489Z,90.31
2019-05-18T03:48:55.403Z,90.12
2019-05-18T03:49:55.330Z,90.22
2019-05-18T03:50:55.251Z,90.98
2019-05-18T03:51:55.175Z,90.59
2019-05-18T03:52:55.090Z,90.88
2019-05-18T03:53:55.002Z,91.74
2019-05-18T03:54:54.913Z,91.55
2019-05-18T03:55:54.846Z,91.64
2019-05-18T03:56:54.751Z,91.83
2019-05-18T03:57:54.676Z,91.74
2019-05-18T03:58:54.591Z,92.22
2019-05-18T03:59:54.516Z,92.12
2019-05-18T04:00:54.427Z,92.32
2019-05-18T04:01:54.354Z,92.41
2019-05-18T04:02:54.267Z,92.50
2019-05-18T04:03:54.190Z,92.41
2019-05-18T04:04:54.102Z,92.60
2019-05-18T04:05:54.041Z,92.50
2019-05-18T04:06:53.940Z,92.98
2019-05-18T04:07:53.855Z,92.98
2019-05-18T04:08:53.783Z,92.79
2019-05-18T04:09:53.703Z,92.60
2019-05-18T04:10:53.617Z,93.60
2019-05-18T04:11:53.531Z,93.46
2019-05-18T04:12:53.460Z,93.55
2019-05-18T04:13:53.368Z,93.60
2019-05-18T04:14:53.292Z,93.79
2019-05-18T04:15:53.203Z,94.07
2019-05-18T04:16:53.130Z,93.70
2019-05-18T04:17:53.056Z,93.88
2019-05-18T04:18:52.971Z,93.51
2019-05-18T04:19:52.880Z,93.79
2019-05-18T04:20:52.804Z,93.88
2019-05-18T04:21:52.830Z,94.27
2019-05-18T04:22:52.649Z,95.41
2019-05-18T04:23:52.556Z,95.98
2019-05-18T04:24:52.481Z,96.27
2019-05-18T04:25:52.396Z,97.22
2019-05-18T04:26:52.318Z,98.37
2019-05-18T04:27:52.233Z,98.37
2019-05-18T04:28:52.154Z,98.94
2019-05-18T04:29:52.068Z,99.99
2019-05-18T04:30:51.994Z,99.99
2019-05-18T04:31:51.906Z,99.99
2019-05-18T04:32:51.831Z,99.99
2019-05-18T04:33:51.745Z,99.99
2019-05-18T04:34:51.662Z,99.99
2019-05-18T04:35:51.581Z,99.99
2019-05-18T04:36:51.512Z,99.99
2019-05-18T04:37:51.426Z,99.99
2019-05-18T04:38:51.339Z,99.99
2019-05-18T04:39:51.263Z,99.99
2019-05-18T04:40:51.186Z,99.99
2019-05-18T04:41:51.094Z,99.99
2019-05-18T04:42:51.009Z,99.99
2019-05-18T04:43:50.938Z,99.99
2019-05-18T04:44:50.870Z,99.99
2019-05-18T04:45:50.771Z,99.99
2019-05-18T04:46:50.704Z,99.99
2019-05-18T04:47:50.607Z,99.99
2019-05-18T04:48:50.539Z,99.99
2019-05-18T04:50:04.722Z,99.99
2019-05-18T04:50:50.383Z,99.99
2019-05-18T04:51:50.284Z,99.99
2019-05-18T04:52:50.215Z,99.99
2019-05-18T04:53:50.122Z,99.99
2019-05-18T04:54:50.049Z,99.99
2019-05-18T04:55:49.959Z,99.99
2019-05-18T04:56:49.883Z,99.99
2019-05-18T04:57:49.797Z,99.99
2019-05-18T04:58:49.722Z,99.99
2019-05-18T04:59:49.635Z,99.99
2019-05-18T05:00:49.559Z,99.99
2019-05-18T05:01:49.497Z,99.99
2019-05-18T05:02:49.399Z,99.99
2019-05-18T05:03:49.324Z,99.99
2019-05-18T05:04:52.711Z,99.99
2019-05-18T05:05:49.163Z,99.99
2019-05-18T05:06:49.073Z,99.99
2019-05-18T05:07:49.001Z,99.99
2019-05-18T05:08:48.922Z,99.99
2019-05-18T05:09:48.835Z,99.99
2019-05-18T05:10:48.755Z,99.99
2019-05-18T05:11:48.674Z,99.99
2019-05-18T05:12:48.603Z,99.99
2019-05-18T05:13:48.530Z,99.99
2019-05-18T05:14:48.435Z,99.99
2019-05-18T05:15:48.355Z,99.99
2019-05-18T05:16:48.273Z,99.99
2019-05-18T05:17:48.185Z,99.99
2019-05-18T05:18:48.111Z,99.99
2019-05-18T05:19:48.024Z,99.99
2019-05-18T05:20:47.949Z,99.99
2019-05-18T05:21:47.861Z,99.99
2019-05-18T05:22:47.793Z,99.99
2019-05-18T05:23:47.712Z,99.99
2019-05-18T05:24:47.627Z,99.99
2019-05-18T05:25:47.552Z,99.99
2019-05-18T05:26:47.469Z,99.99
2019-05-18T05:27:47.386Z,99.99
2019-05-18T05:28:47.301Z,99.99
2019-05-18T05:29:47.227Z,99.99
2019-05-18T05:30:47.139Z,99.99
2019-05-18T05:31:47.063Z,99.99
2019-05-18T05:32:46.981Z,99.99
2019-05-18T05:33:46.900Z,99.99
2019-05-18T05:34:46.814Z,99.99
2019-05-18T05:35:46.738Z,99.99
2019-05-18T05:36:46.668Z,99.99
2019-05-18T05:37:46.576Z,99.99
2019-05-18T05:38:46.500Z,99.99
2019-05-18T05:39:46.414Z,99.99
2019-05-18T05:40:46.337Z,99.99
2019-05-18T05:41:46.251Z,99.99
2019-05-18T05:42:46.177Z,99.99
2019-05-18T05:43:46.105Z,99.99
2019-05-18T05:44:46.016Z,99.99
2019-05-18T05:45:45.939Z,99.99
2019-05-18T05:46:45.852Z,99.99
2019-05-18T05:47:45.777Z,99.99
2019-05-18T05:48:45.689Z,99.99
2019-05-18T05:49:45.613Z,99.99
2019-05-18T05:50:45.545Z,99.99
2019-05-18T05:51:45.451Z,99.99
2019-05-18T05:52:45.386Z,99.99
2019-05-18T05:53:45.289Z,99.99
2019-05-18T05:54:45.214Z,99.99
2019-05-18T05:55:45.128Z,99.99
2019-05-18T05:56:45.055Z,99.99
2019-05-18T05:57:44.977Z,99.99
2019-05-18T05:58:44.901Z,99.99
2019-05-18T05:59:44.828Z,99.99
2019-05-18T06:00:44.728Z,99.99
2019-05-18T06:01:44.653Z,99.99
2019-05-18T06:02:44.566Z,99.99
2019-05-18T06:03:44.491Z,99.99
2019-05-18T06:04:44.429Z,99.99
2019-05-18T06:05:44.329Z,99.99
2019-05-18T06:06:44.254Z,99.99
2019-05-18T06:07:44.170Z,99.99
2019-05-18T06:08:44.091Z,99.99
2019-05-18T06:09:44.033Z,99.99
2019-05-18T06:10:43.930Z,99.99
2019-05-18T06:11:43.881Z,99.99
2019-05-18T06:12:43.792Z,99.99
2019-05-18T06:13:43.691Z,99.99
2019-05-18T06:14:43.623Z,99.99
2019-05-18T06:15:43.530Z,99.99
2019-05-18T06:16:43.455Z,99.99
2019-05-18T06:17:43.366Z,99.99
2019-05-18T06:18:43.295Z,99.99
2019-05-18T06:19:43.205Z,99.99
2019-05-18T06:20:51.039Z,99.99
2019-05-18T06:21:43.055Z,99.99
2019-05-18T06:22:42.969Z,99.99
2019-05-18T06:23:42.893Z,99.99
2019-05-18T06:24:42.812Z,99.72
2019-05-18T06:25:42.730Z,99.00
2019-05-18T06:26:42.660Z,99.99
2019-05-18T06:27:42.582Z,99.91
2019-05-18T06:28:42.494Z,99.43
2019-05-18T06:29:42.407Z,99.99
2019-05-18T06:30:42.333Z,99.15
2019-05-18T06:31:42.256Z,98.28
2019-05-18T06:32:42.169Z,98.38
2019-05-18T06:33:42.094Z,97.80
2019-05-18T06:34:42.008Z,96.84
2019-05-18T06:35:41.978Z,95.03
2019-05-18T06:36:41.856Z,95.12
2019-05-18T06:37:41.770Z,96.18
2019-05-18T06:38:41.695Z,95.60
2019-05-18T06:39:41.621Z,95.79
2019-05-18T06:40:41.533Z,98.05
2019-05-18T06:41:41.457Z,96.80
2019-05-18T06:42:41.369Z,95.17
2019-05-18T06:43:41.294Z,95.56
2019-05-18T06:44:41.221Z,93.06
2019-05-18T06:45:41.133Z,93.63
2019-05-18T06:46:41.059Z,93.26
2019-05-18T06:47:40.982Z,93.83
2019-05-18T06:48:40.908Z,92.68
2019-05-18T06:49:40.820Z,92.77
2019-05-18T06:50:40.733Z,93.01
2019-05-18T06:51:40.672Z,94.26
2019-05-18T06:52:40.620Z,90.67
2019-05-18T06:53:40.499Z,90.57
2019-05-18T06:54:40.422Z,91.34
2019-05-18T06:55:40.346Z,91.14
2019-05-18T06:56:40.261Z,92.97
2019-05-18T06:57:40.183Z,91.53
2019-05-18T06:58:40.100Z,90.76
2019-05-18T06:59:40.024Z,92.01
2019-05-18T07:00:39.962Z,92.39
2019-05-18T07:01:39.865Z,93.21
2019-05-18T07:02:39.792Z,91.67
2019-05-18T07:03:39.719Z,90.52
2019-05-18T07:04:39.622Z,90.33
2019-05-18T07:05:39.560Z,90.71
2019-05-18T07:06:39.473Z,92.44
2019-05-18T07:07:39.392Z,92.86
2019-05-18T07:08:39.310Z,91.05
2019-05-18T07:09:39.236Z,89.27
2019-05-18T07:10:39.161Z,90.85
2019-05-18T07:11:39.072Z,91.81
2019-05-18T07:12:38.997Z,88.55
2019-05-18T07:13:38.916Z,89.07
2019-05-18T07:14:38.836Z,87.54
2019-05-18T07:15:38.814Z,87.01
2019-05-18T07:16:38.673Z,86.05
2019-05-18T07:17:38.603Z,86.68
2019-05-18T07:18:38.529Z,86.68
2019-05-18T07:19:38.437Z,87.29
2019-05-18T07:20:38.362Z,86.14
2019-05-18T07:21:38.288Z,85.04
2019-05-18T07:22:38.201Z,85.42
2019-05-18T07:23:38.125Z,85.85
2019-05-18T07:24:38.049Z,83.45
2019-05-18T07:25:37.975Z,83.30
2019-05-18T07:26:37.889Z,82.57
2019-05-18T07:27:37.813Z,80.69
2019-05-18T07:28:37.739Z,80.50
2019-05-18T07:29:37.663Z,79.53
2019-05-18T07:30:37.575Z,79.28
2019-05-18T07:31:37.499Z,78.13
2019-05-18T07:32:37.425Z,77.13
2019-05-18T07:33:37.351Z,76.98
2019-05-18T07:34:37.280Z,76.50
2019-05-18T07:35:37.188Z,76.31
2019-05-18T07:36:37.113Z,75.90
2019-05-18T07:37:37.047Z,74.84
2019-05-18T07:38:36.964Z,74.16
2019-05-18T07:39:36.891Z,74.07
2019-05-18T07:40:36.813Z,74.41
2019-05-18T07:41:46.215Z,74.13
2019-05-18T07:42:36.652Z,74.96
2019-05-18T07:43:36.576Z,75.67
2019-05-18T07:44:36.501Z,75.23
2019-05-18T07:45:36.426Z,74.26
2019-05-18T07:46:36.351Z,73.43
2019-05-18T07:47:36.277Z,73.65
2019-05-18T07:48:36.202Z,73.68
2019-05-18T07:49:36.146Z,74.58
2019-05-18T07:50:36.054Z,72.83
2019-05-18T07:51:37.332Z,71.61
2019-05-18T07:52:35.902Z,69.52
2019-05-18T07:53:35.841Z,68.01
2019-05-18T07:54:35.753Z,69.64
2019-05-18T07:55:35.677Z,70.45
2019-05-18T07:56:35.602Z,69.68
2019-05-18T07:57:35.528Z,69.78
2019-05-18T07:58:35.454Z,68.46
2019-05-18T07:59:35.377Z,68.30
2019-05-18T08:00:35.344Z,66.97
2019-05-18T08:01:35.230Z,68.23
2019-05-18T08:02:35.167Z,68.59
2019-05-18T08:03:35.077Z,69.87
2019-05-18T08:04:35.005Z,70.32
2019-05-18T08:05:34.928Z,67.91
2019-05-18T08:06:34.876Z,67.56
2019-05-18T08:07:34.779Z,65.95
2019-05-18T08:08:34.720Z,66.40
2019-05-18T08:09:34.674Z,66.17
2019-05-18T08:10:34.567Z,67.94
2019-05-18T08:11:34.493Z,65.75
2019-05-18T08:12:34.432Z,65.50
2019-05-18T08:13:34.367Z,64.72
2019-05-18T08:14:34.282Z,64.62
2019-05-18T08:15:34.204Z,65.82
2019-05-18T08:16:34.130Z,64.59
2019-05-18T08:17:34.059Z,62.82
2019-05-18T08:18:33.993Z,63.18
2019-05-18T08:19:33.918Z,62.11
2019-05-18T08:20:33.860Z,62.40
2019-05-18T08:21:33.779Z,63.79
2019-05-18T08:22:33.717Z,62.75
2019-05-18T08:23:33.630Z,62.18
2019-05-18T08:24:33.569Z,62.79
2019-05-18T08:25:33.505Z,64.34
2019-05-18T08:26:33.419Z,63.34
2019-05-18T08:27:33.355Z,63.79
2019-05-18T08:28:33.281Z,64.63
2019-05-18T08:29:33.209Z,64.62
2019-05-18T08:30:33.149Z,63.89
2019-05-18T08:31:33.070Z,65.30
2019-05-18T08:32:33.014Z,63.89
2019-05-18T08:33:32.931Z,64.21
2019-05-18T08:34:32.857Z,62.11
2019-05-18T08:35:32.794Z,61.66
2019-05-18T08:36:32.719Z,62.56
2019-05-18T08:37:32.657Z,63.27
2019-05-18T08:38:32.585Z,61.15
2019-05-18T08:39:32.507Z,61.89
2019-05-18T08:40:32.445Z,61.66
2019-05-18T08:41:32.371Z,63.69
2019-05-18T08:42:32.471Z,63.02
2019-05-18T08:43:32.245Z,62.66
2019-05-18T08:44:32.163Z,62.15
2019-05-18T08:45:32.099Z,62.95
2019-05-18T08:46:32.021Z,62.79
2019-05-18T08:47:31.958Z,63.69
2019-05-18T08:48:31.896Z,62.98
2019-05-18T08:49:31.826Z,63.89
2019-05-18T08:50:31.746Z,62.79
2019-05-18T08:51:31.672Z,64.24
2019-05-18T08:52:31.608Z,64.56
2019-05-18T08:53:31.537Z,63.95
2019-05-18T08:54:31.471Z,64.53
2019-05-18T08:55:31.397Z,64.27
2019-05-18T08:56:31.322Z,64.04
2019-05-18T08:57:31.260Z,63.24
2019-05-18T08:58:31.191Z,62.50
2019-05-18T08:59:31.126Z,62.59
2019-05-18T09:00:31.073Z,62.82
2019-05-18T09:01:30.984Z,60.78
2019-05-18T09:02:30.910Z,61.33
2019-05-18T09:03:30.836Z,61.15
2019-05-18T09:04:30.776Z,61.27
2019-05-18T09:05:30.699Z,60.91
2019-05-18T09:06:30.635Z,60.65
2019-05-18T09:07:30.560Z,61.17
2019-05-18T09:08:30.499Z,60.06
2019-05-18T09:09:30.424Z,57.39
2019-05-18T09:10:30.361Z,57.62
2019-05-18T09:11:30.285Z,59.66
2019-05-18T09:12:30.223Z,59.78
2019-05-18T09:13:30.154Z,58.23
2019-05-18T09:14:30.086Z,58.23
2019-05-18T09:15:30.024Z,57.26
2019-05-18T09:16:29.970Z,56.85
2019-05-18T09:17:29.886Z,58.59
2019-05-18T09:18:29.833Z,59.30
2019-05-18T09:19:29.750Z,58.17
2019-05-18T09:20:29.686Z,59.50
2019-05-18T09:21:29.613Z,61.11
2019-05-18T09:22:29.537Z,61.21
2019-05-18T09:23:29.475Z,60.95
2019-05-18T09:24:29.412Z,60.52
2019-05-18T09:25:29.337Z,61.01
2019-05-18T09:26:29.275Z,59.94
2019-05-18T09:27:29.203Z,59.66
2019-05-18T09:28:29.143Z,59.97
2019-05-18T09:29:29.066Z,58.26
2019-05-18T09:30:29.000Z,57.33
2019-05-18T09:31:28.940Z,58.56
2019-05-18T09:32:28.881Z,58.49
2019-05-18T09:33:28.835Z,57.81
2019-05-18T09:34:28.726Z,56.34
2019-05-18T09:35:28.677Z,56.98
2019-05-18T09:36:28.609Z,57.28
2019-05-18T09:37:28.527Z,58.65
2019-05-18T09:38:28.464Z,57.30
2019-05-18T09:39:28.389Z,56.98
2019-05-18T09:40:28.326Z,57.56
2019-05-18T09:41:28.252Z,59.31
2019-05-18T09:42:28.189Z,59.59
2019-05-18T09:43:28.115Z,59.72
2019-05-18T09:44:28.054Z,58.14
2019-05-18T09:45:27.978Z,58.57
2019-05-18T09:46:27.914Z,59.25
2019-05-18T09:47:27.842Z,59.51
2019-05-18T09:48:27.766Z,60.73
2019-05-18T09:49:27.703Z,61.47
2019-05-18T09:50:27.629Z,62.57
2019-05-18T09:51:27.564Z,61.70
2019-05-18T09:52:44.198Z,61.41
2019-05-18T09:53:29.921Z,62.37
2019-05-18T09:54:27.341Z,61.70
2019-05-18T09:55:27.265Z,61.38
2019-05-18T09:56:27.190Z,62.15
2019-05-18T09:57:27.128Z,62.76
2019-05-18T09:58:27.056Z,63.85
2019-05-18T09:59:26.979Z,61.60
2019-05-18T10:00:26.904Z,61.54
2019-05-18T10:01:26.829Z,61.44
2019-05-18T10:02:26.755Z,61.08
2019-05-18T10:03:26.687Z,60.24
2019-05-18T10:04:26.604Z,60.02
2019-05-18T10:05:26.532Z,60.28
2019-05-18T10:06:26.454Z,60.47
2019-05-18T10:07:26.392Z,60.96
2019-05-18T10:08:26.317Z,60.86
2019-05-18T10:09:26.296Z,60.96
2019-05-18T10:10:26.169Z,61.57
2019-05-18T10:11:26.109Z,60.69
2019-05-18T10:12:26.017Z,60.72
2019-05-18T10:13:25.975Z,59.02
2019-05-18T10:14:25.868Z,59.51
2019-05-18T10:15:25.793Z,59.70
2019-05-18T10:16:25.718Z,60.09
2019-05-18T10:17:25.642Z,61.11
2019-05-18T10:18:25.567Z,62.27
2019-05-18T10:19:25.553Z,59.91
2019-05-18T10:20:25.418Z,59.89
2019-05-18T10:21:25.349Z,57.05
2019-05-18T10:22:25.268Z,57.89
2019-05-18T10:23:25.194Z,57.92
2019-05-18T10:24:25.138Z,58.09
2019-05-18T10:25:25.046Z,58.09
2019-05-18T10:26:24.983Z,59.63
2019-05-18T10:27:24.894Z,59.44
2019-05-18T10:28:24.822Z,57.60
2019-05-18T10:29:24.744Z,57.70
2019-05-18T10:30:24.672Z,56.83
2019-05-18T10:31:24.594Z,59.73
2019-05-18T10:32:24.522Z,57.92
2019-05-18T10:33:24.445Z,56.83
2019-05-18T10:34:24.371Z,57.57
2019-05-18T10:35:24.302Z,58.25
2019-05-18T10:36:24.221Z,57.41
2019-05-18T10:37:24.147Z,56.63
2019-05-18T10:38:24.072Z,57.51
2019-05-18T10:39:23.997Z,57.15
2019-05-18T10:40:23.933Z,56.28
2019-05-18T10:41:23.858Z,54.27
2019-05-18T10:42:23.788Z,54.23
2019-05-18T10:43:23.761Z,53.77
2019-05-18T10:44:23.637Z,54.82
2019-05-18T10:45:23.559Z,50.65
2019-05-18T10:46:23.483Z,48.61
2019-05-18T10:47:23.409Z,50.26
2019-05-18T10:48:23.334Z,48.00
2019-05-18T10:49:23.271Z,49.44
2019-05-18T10:50:23.196Z,49.99
2019-05-18T10:51:23.126Z,50.09
2019-05-18T10:52:23.046Z,49.46
2019-05-18T10:53:28.759Z,49.49
2019-05-18T10:54:22.915Z,50.09
2019-05-18T10:55:22.853Z,49.63
2019-05-18T10:56:22.760Z,48.59
2019-05-18T10:57:22.697Z,48.18
2019-05-18T10:58:22.621Z,47.98
2019-05-18T10:59:22.560Z,49.87
2019-05-18T11:00:22.485Z,49.24
2019-05-18T11:01:22.413Z,49.49
2019-05-18T11:02:22.347Z,49.24
2019-05-18T11:03:22.274Z,46.89
2019-05-18T11:04:22.214Z,47.42
2019-05-18T11:05:22.135Z,46.64
2019-05-18T11:06:22.073Z,46.84
2019-05-18T11:07:22.000Z,46.67
2019-05-18T11:08:21.935Z,46.11
2019-05-18T11:09:21.874Z,45.57
2019-05-18T11:10:21.800Z,45.62
2019-05-18T11:11:21.735Z,46.72
2019-05-18T11:12:21.674Z,46.60
2019-05-18T11:13:21.599Z,47.08
2019-05-18T11:14:21.552Z,46.69
2019-05-18T11:15:21.547Z,46.91
2019-05-18T11:16:21.405Z,45.77
2019-05-18T11:17:21.338Z,45.69
2019-05-18T11:18:21.263Z,45.87
2019-05-18T11:19:21.199Z,45.77
2019-05-18T11:20:21.137Z,45.94
2019-05-18T11:21:21.074Z,47.28
2019-05-18T11:22:20.999Z,48.00
2019-05-18T11:23:20.937Z,47.93
2019-05-18T11:24:20.874Z,47.93
2019-05-18T11:25:20.799Z,48.20
2019-05-18T11:26:20.738Z,46.84
2019-05-18T11:27:20.675Z,46.72
2019-05-18T11:28:20.600Z,46.74
2019-05-18T11:29:23.441Z,45.77
2019-05-18T11:30:20.475Z,46.06
2019-05-18T11:31:20.401Z,45.75
2019-05-18T11:32:20.339Z,45.62
2019-05-18T11:33:20.275Z,45.77
2019-05-18T11:34:20.201Z,46.88
2019-05-18T11:35:20.141Z,45.08
2019-05-18T11:36:20.075Z,44.30
2019-05-18T11:37:20.002Z,44.13
2019-05-18T11:38:19.942Z,43.36
2019-05-18T11:39:19.883Z,45.07
2019-05-18T11:40:19.815Z,46.79
2019-05-18T11:41:19.744Z,48.10
2019-05-18T11:42:19.677Z,46.30
2019-05-18T11:43:19.621Z,46.86
2019-05-18T11:44:19.546Z,45.62
2019-05-18T11:45:19.476Z,45.98
2019-05-18T11:46:19.415Z,45.52
2019-05-18T11:47:19.340Z,44.59
2019-05-18T11:48:19.276Z,44.62
2019-05-18T11:49:19.215Z,45.18
2019-05-18T11:50:19.165Z,45.57
2019-05-18T11:51:19.077Z,45.34
2019-05-18T11:52:19.016Z,46.69
2019-05-18T11:53:18.957Z,46.41
2019-05-18T11:54:18.877Z,46.81
2019-05-18T11:55:18.817Z,47.34
2019-05-18T11:56:18.766Z,45.79
2019-05-18T11:57:18.679Z,46.86
2019-05-18T11:58:18.617Z,47.25
2019-05-18T11:59:18.554Z,47.88
2019-05-18T12:00:18.491Z,46.86
2019-05-18T12:01:18.417Z,44.76
2019-05-18T12:02:18.353Z,45.14
2019-05-18T12:03:18.384Z,44.26
2019-05-18T12:04:18.217Z,44.62
2019-05-18T12:05:18.158Z,44.48
2019-05-18T12:06:18.095Z,43.43
2019-05-18T12:07:18.029Z,42.96
2019-05-18T12:08:17.958Z,42.11
2019-05-18T12:09:17.892Z,42.53
2019-05-18T12:10:18.466Z,43.30
2019-05-18T12:11:17.757Z,43.33
2019-05-18T12:12:17.693Z,44.62
2019-05-18T12:13:17.629Z,45.24
2019-05-18T12:14:20.179Z,47.13
2019-05-18T12:15:17.507Z,48.32
2019-05-18T12:16:18.242Z,48.44
2019-05-18T12:17:17.367Z,47.52
2019-05-18T12:18:17.304Z,45.42
2019-05-18T12:19:17.243Z,45.91
2019-05-18T12:20:17.168Z,46.74
2019-05-18T12:21:17.105Z,45.67
2019-05-18T12:22:17.043Z,44.55
2019-05-18T12:23:16.968Z,44.76
2019-05-18T12:24:16.906Z,45.97
2019-05-18T12:25:16.830Z,47.08
2019-05-18T12:26:16.769Z,45.94
2019-05-18T12:27:16.705Z,46.27
2019-05-18T12:28:16.643Z,44.30
2019-05-18T12:29:16.583Z,44.69
2019-05-18T12:30:16.506Z,43.29
2019-05-18T12:31:16.438Z,44.10
2019-05-18T12:32:16.370Z,44.65
2019-05-18T12:33:16.306Z,45.97
2019-05-18T12:34:17.244Z,47.01
2019-05-18T12:35:16.170Z,48.03
2019-05-18T12:36:16.110Z,45.11
2019-05-18T12:37:16.046Z,48.66
2019-05-18T12:38:15.975Z,49.97
2019-05-18T12:39:15.909Z,50.34
2019-05-18T12:40:15.848Z,50.41
2019-05-18T12:41:15.794Z,49.73
2019-05-18T12:42:15.707Z,47.11
2019-05-18T12:43:15.647Z,45.87
2019-05-18T12:44:15.582Z,45.40
2019-05-18T12:45:15.509Z,44.26
2019-05-18T12:46:15.451Z,43.67
2019-05-18T12:47:15.373Z,41.55
2019-05-18T12:48:15.309Z,42.00
2019-05-18T12:49:15.247Z,43.19
2019-05-18T12:50:15.171Z,42.16
2019-05-18T12:51:15.109Z,42.78